Time;durP1;ratioP1;P1;durP2;ratioP2;P2;SDS_P1;SDS_P2;PMS_P1;PMS_P2;Temp;Humidity;BMP_temperature;BMP_pressure;BME280_temperature;BME280_humidity;BME280_pressure;Samples;Min_cycle;Max_cycle;Signal;HPM_P1;HPM_P2
2021/01/13 00:00:26;;;;;;;40.40;17.70;;;;;;;-1.44;71.57;98993.19;124675;1144;22781;-67
2021/01/13 00:02:53;;;;;;;82.13;32.60;;;;;;;-1.45;72.44;98996.91;124584;1142;22720;-67
2021/01/13 00:05:22;;;;;;;64.37;27.63;;;;;;;-1.44;71.62;98993.19;124697;1143;22703;-66
2021/01/13 00:07:50;;;;;;;76.10;31.10;;;;;;;-1.44;72.07;98982.50;124567;1144;22697;-66
2021/01/13 00:10:19;;;;;;;42.07;20.70;;;;;;;-1.46;72.09;98984.57;124597;1144;23454;-65
2021/01/13 00:12:48;;;;;;;41.53;20.17;;;;;;;-1.46;71.92;98984.57;124565;1142;22673;-65
2021/01/13 00:15:16;;;;;;;59.13;24.97;;;;;;;-1.46;72.24;98987.24;124605;1144;23467;-65
2021/01/13 00:17:47;;;;;;;30.63;16.53;;;;;;;-1.46;71.70;98980.05;124786;1143;22676;-66
2021/01/13 00:20:15;;;;;;;32.63;15.60;;;;;;;-1.45;71.93;98973.70;124652;1143;23358;-65
2021/01/13 00:22:45;;;;;;;28.00;14.67;;;;;;;-1.44;72.44;98971.81;124613;1143;22830;-65
2021/01/13 00:25:13;;;;;;;37.40;16.87;;;;;;;-1.46;72.27;98971.22;124586;1144;23066;-66
2021/01/13 00:27:41;;;;;;;46.85;19.45;;;;;;;-1.49;72.14;98959.06;124703;1142;22833;-66
2021/01/13 00:30:10;;;;;;;34.17;15.67;;;;;;;-1.46;72.45;98963.20;124645;1143;23481;-66
2021/01/13 00:32:37;;;;;;;30.70;16.03;;;;;;;-1.46;72.19;98953.34;124726;1143;22785;-66
2021/01/13 00:35:06;;;;;;;47.43;21.50;;;;;;;-1.45;72.24;98943.48;124617;1143;22718;-65
2021/01/13 00:37:38;;;;;;;128.47;43.00;;;;;;;-1.46;72.69;98944.50;124720;1144;22649;-65
2021/01/13 00:40:06;;;;;;;114.30;37.67;;;;;;;-1.47;71.63;98932.98;124484;1143;22655;-65
2021/01/13 00:42:33;;;;;;;44.00;21.33;;;;;;;-1.50;71.69;98943.23;124829;1144;22717;-66
2021/01/13 00:45:01;;;;;;;41.50;18.97;;;;;;;-1.54;72.19;98933.94;124571;1142;22670;-66
2021/01/13 00:47:28;;;;;;;32.03;15.73;;;;;;;-1.54;71.98;98929.43;124774;1143;22700;-65
2021/01/13 00:49:55;;;;;;;33.03;17.17;;;;;;;-1.54;71.68;98921.41;124643;1142;22865;-66
2021/01/13 00:52:24;;;;;;;29.13;16.07;;;;;;;-1.52;72.19;98931.91;124690;1144;22657;-66
2021/01/13 00:54:51;;;;;;;78.20;26.60;;;;;;;-1.53;72.45;98928.41;124626;1143;22704;-66
2021/01/13 00:57:19;;;;;;;76.43;29.50;;;;;;;-1.52;71.33;98923.89;124770;1144;22665;-66
2021/01/13 01:00:04;;;;;;;146.33;45.40;;;;;;;-1.54;71.61;98916.07;124525;1142;22703;-66
2021/01/13 01:02:32;;;;;;;57.17;22.13;;;;;;;-1.54;71.78;98917.92;124672;1142;22921;-65
2021/01/13 01:04:59;;;;;;;88.37;31.03;;;;;;;-1.56;71.74;98915.44;124688;1142;22687;-66
2021/01/13 01:07:27;;;;;;;53.23;24.60;;;;;;;-1.60;71.43;98911.53;120464;1144;23081;-65
2021/01/13 01:09:55;;;;;;;83.53;30.13;;;;;;;-1.63;71.56;98919.92;120298;1144;23331;-65
2021/01/13 01:12:23;;;;;;;70.07;26.33;;;;;;;-1.67;71.78;98910.64;124687;1143;22815;-66
2021/01/13 01:14:52;;;;;;;74.77;28.13;;;;;;;-1.66;71.79;98930.16;124733;1144;22759;-66
2021/01/13 01:17:19;;;;;;;55.27;22.47;;;;;;;-1.70;72.11;98926.22;124583;1143;22683;-66
2021/01/13 01:19:47;;;;;;;137.60;48.67;;;;;;;-1.71;72.24;98929.91;124784;1144;22628;-66
2021/01/13 01:22:14;;;;;;;49.93;21.13;;;;;;;-1.74;72.17;98924.98;124547;1142;22767;-66
2021/01/13 01:24:41;;;;;;;45.40;21.33;;;;;;;-1.75;72.12;98917.98;124765;1142;22919;-66
2021/01/13 01:27:10;;;;;;;34.20;17.77;;;;;;;-1.73;72.31;98903.39;124575;1144;22692;-66
2021/01/13 01:29:37;;;;;;;32.23;15.47;;;;;;;-1.79;72.10;98901.52;124684;1142;22732;-66
2021/01/13 01:32:04;;;;;;;40.40;18.10;;;;;;;-1.84;71.98;98895.92;124631;1144;22783;-66
2021/01/13 01:34:32;;;;;;;23.63;11.77;;;;;;;-1.89;72.01;98896.53;124689;1144;23377;-66
2021/01/13 01:36:59;;;;;;;18.10;10.13;;;;;;;-1.95;72.08;98883.12;124518;1143;22771;-66
2021/01/13 01:39:27;;;;;;;24.43;12.17;;;;;;;-1.99;72.26;98888.01;124735;1144;22766;-66
2021/01/13 01:41:54;;;;;;;20.63;11.43;;;;;;;-2.01;72.31;98867.86;124463;1144;22697;-66
2021/01/13 01:44:21;;;;;;;18.40;9.40;;;;;;;-2.06;72.24;98863.13;124564;1144;22665;-66
2021/01/13 01:46:49;;;;;;;22.90;12.80;;;;;;;-2.08;71.90;98877.67;124575;1144;22675;-66
2021/01/13 01:49:16;;;;;;;20.20;10.17;;;;;;;-2.11;72.33;98886.89;124438;1144;22693;-66
2021/01/13 01:52:06;;;;;;;20.40;10.43;;;;;;;-2.14;72.20;98879.26;124623;1143;22830;-66
2021/01/13 01:54:35;;;;;;;21.47;10.77;;;;;;;-2.18;72.33;98873.50;124767;1144;22763;-66
2021/01/13 01:57:03;;;;;;;18.90;9.70;;;;;;;-2.18;72.27;98875.34;124621;1143;22674;-66
2021/01/13 02:00:00;;;;;;;48.77;19.80;;;;;;;-2.17;72.55;98860.98;124716;1144;23354;-66
2021/01/13 02:02:40;;;;;;;26.87;12.80;;;;;;;-2.12;72.55;98863.05;124544;1142;23936;-66
2021/01/13 02:05:08;;;;;;;101.50;29.47;;;;;;;-2.10;72.78;98861.02;124808;1143;22693;-66
2021/01/13 02:07:35;;;;;;;42.43;15.87;;;;;;;-2.13;71.99;98851.56;124496;1143;23507;-66
2021/01/13 02:10:04;;;;;;;25.63;12.23;;;;;;;-2.18;71.56;98838.81;124790;1142;22686;-66
2021/01/13 02:12:33;;;;;;;24.55;12.65;;;;;;;-2.23;71.64;98833.22;124571;1142;22772;-66
2021/01/13 02:15:02;;;;;;;60.53;23.00;;;;;;;-2.27;71.60;98841.80;124616;1144;22730;-66
2021/01/13 02:17:34;;;;;;;18.13;10.13;;;;;;;-2.31;71.49;98838.67;120119;1144;22983;-66
2021/01/13 02:20:05;;;;;;;38.47;17.37;;;;;;;-2.35;71.73;98840.11;124610;1144;22692;-66
2021/01/13 02:22:49;;;;;;;23.80;12.05;;;;;;;-2.40;71.45;98828.34;124656;1142;22797;-66
2021/01/13 02:25:52;;;;;;;17.27;10.20;;;;;;;-2.48;71.40;98821.32;124554;1144;23898;-66
2021/01/13 02:28:20;;;;;;;34.67;15.23;;;;;;;-2.48;71.62;98834.66;124485;1143;22710;-67
2021/01/13 02:31:03;;;;;;;32.33;13.90;;;;;;;-2.50;71.54;98823.34;124585;1143;22705;-67
2021/01/13 02:33:40;;;;;;;30.20;14.23;;;;;;;-2.51;71.47;98821.70;124602;1144;22793;-67
2021/01/13 02:36:26;;;;;;;27.13;13.68;;;;;;;-2.51;71.60;98824.36;124806;1144;22688;-67
2021/01/13 02:38:54;;;;;;;31.10;13.83;;;;;;;-2.53;71.84;98811.22;124621;1143;22783;-68
2021/01/13 02:41:27;;;;;;;24.17;12.10;;;;;;;-2.48;71.82;98805.31;124605;1143;22691;-66
2021/01/13 02:43:58;;;;;;;29.70;14.27;;;;;;;-2.44;71.67;98800.41;124556;1143;22718;-65
2021/01/13 02:46:56;;;;;;;24.70;13.10;;;;;;;-2.43;71.17;98799.39;122234;1144;26385;-66
2021/01/13 02:49:31;;;;;;;18.15;10.48;;;;;;;-2.48;71.20;98785.83;124471;1144;22782;-66
2021/01/13 02:52:00;;;;;;;29.97;13.43;;;;;;;-2.53;71.62;98792.55;124507;1144;22702;-66
2021/01/13 02:54:27;;;;;;;18.47;10.13;;;;;;;-2.55;71.23;98791.91;124668;1144;22696;-66
2021/01/13 02:56:55;;;;;;;20.43;11.53;;;;;;;-2.56;71.50;98803.59;124661;1143;22759;-66
2021/01/13 02:59:23;;;;;;;25.97;13.10;;;;;;;-2.59;71.19;98797.81;124661;1142;22676;-66
2021/01/13 03:01:51;;;;;;;26.53;12.73;;;;;;;-2.59;71.27;98789.81;124760;1143;22695;-66
2021/01/13 03:04:18;;;;;;;30.10;15.97;;;;;;;-2.56;71.74;98792.92;124642;1143;23492;-66
2021/01/13 03:06:46;;;;;;;33.53;16.93;;;;;;;-2.53;71.47;98791.72;124586;1143;23259;-66
2021/01/13 03:09:14;;;;;;;26.03;12.60;;;;;;;-2.51;71.35;98789.69;124722;1142;22747;-66
2021/01/13 03:11:42;;;;;;;27.63;14.97;;;;;;;-2.47;71.11;98790.14;124581;1144;23455;-66
2021/01/13 03:14:15;;;;;;;57.00;21.23;;;;;;;-2.50;71.21;98778.01;124776;1144;22769;-66
2021/01/13 03:16:45;;;;;;;48.17;18.30;;;;;;;-2.54;71.34;98792.73;121587;1144;24891;-65
2021/01/13 03:19:17;;;;;;;32.47;15.63;;;;;;;-2.55;71.81;98791.09;124728;1143;22792;-66
2021/01/13 03:21:57;;;;;;;24.50;13.70;;;;;;;-2.58;71.49;98788.80;124574;1144;22753;-66
2021/01/13 03:24:31;;;;;;;27.87;13.60;;;;;;;-2.59;71.62;98776.48;124515;1144;22702;-65
2021/01/13 03:26:59;;;;;;;27.23;13.97;;;;;;;-2.59;71.79;98779.14;124553;1144;22767;-66
2021/01/13 03:29:26;;;;;;;24.83;13.73;;;;;;;-2.58;71.97;98773.63;124655;1143;22718;-65
2021/01/13 03:31:57;;;;;;;23.57;13.27;;;;;;;-2.55;71.30;98765.25;124424;1144;23374;-65
2021/01/13 03:34:29;;;;;;;23.93;13.77;;;;;;;-2.54;71.78;98764.23;124556;1144;27584;-69
2021/01/13 03:37:14;;;;;;;21.93;11.70;;;;;;;-2.53;72.12;98755.22;124412;1144;22816;-67
2021/01/13 03:39:42;;;;;;;24.90;11.87;;;;;;;-2.51;71.65;98757.69;124767;1144;22699;-67
2021/01/13 03:42:11;;;;;;;21.87;12.47;;;;;;;-2.50;71.59;98754.84;124654;1143;23329;-67
2021/01/13 03:44:40;;;;;;;26.23;12.23;;;;;;;-2.49;71.38;98752.99;124740;1143;23279;-67
2021/01/13 03:47:29;;;;;;;26.27;14.30;;;;;;;-2.51;71.85;98761.19;124459;1143;23486;-67
2021/01/13 03:50:19;;;;;;;22.20;12.57;;;;;;;-2.49;71.23;98742.33;124676;1143;22768;-66
2021/01/13 03:53:04;;;;;;;20.40;11.90;;;;;;;-2.51;71.53;98737.18;124594;1144;22773;-67
2021/01/13 03:55:33;;;;;;;20.27;10.23;;;;;;;-2.52;71.21;98734.70;124619;1143;22762;-66
2021/01/13 03:58:36;;;;;;;25.73;12.80;;;;;;;-2.56;71.23;98734.27;124441;1143;22684;-67
2021/01/13 04:01:13;;;;;;;17.70;10.53;;;;;;;-2.58;71.21;98725.63;124698;1144;22657;-66
2021/01/13 04:03:59;;;;;;;16.50;9.87;;;;;;;-2.57;71.40;98723.78;124627;1144;22854;-66
2021/01/13 04:06:27;;;;;;;20.27;12.43;;;;;;;-2.58;71.28;98719.47;124767;1143;22672;-66
2021/01/13 04:08:54;;;;;;;18.80;11.37;;;;;;;-2.62;70.96;98708.39;124573;1143;22673;-66
2021/01/13 04:11:22;;;;;;;18.80;10.23;;;;;;;-2.64;71.31;98709.59;124607;1142;22667;-66
2021/01/13 04:13:52;;;;;;;21.07;11.40;;;;;;;-2.64;71.16;98702.42;124582;1144;22721;-66
2021/01/13 04:16:23;;;;;;;19.93;11.20;;;;;;;-2.65;70.93;98703.44;124766;1143;22688;-66
2021/01/13 04:18:52;;;;;;;17.73;10.97;;;;;;;-2.65;70.92;98702.61;124661;1144;22657;-66
2021/01/13 04:21:21;;;;;;;20.13;11.43;;;;;;;-2.68;71.34;98693.16;124779;1144;22707;-66
2021/01/13 04:23:49;;;;;;;19.23;10.30;;;;;;;-2.67;71.06;98702.80;124567;1143;22691;-66
2021/01/13 04:26:16;;;;;;;22.03;12.03;;;;;;;-2.66;71.45;98707.12;124798;1144;22749;-65
2021/01/13 04:28:44;;;;;;;20.27;10.37;;;;;;;-2.63;71.25;98720.06;124711;1143;22741;-66
2021/01/13 04:32:42;;;;;;;20.10;10.70;;;;;;;-2.64;71.17;98705.09;120093;1148;28309;-66
2021/01/13 04:35:11;;;;;;;19.33;11.27;;;;;;;-2.66;71.19;98700.96;124374;1146;22816;-66
2021/01/13 04:37:38;;;;;;;16.53;10.30;;;;;;;-2.68;70.93;98700.33;124387;1145;23322;-66
2021/01/13 04:40:37;;;;;;;19.27;10.60;;;;;;;-2.70;71.37;98703.18;124163;1148;22694;-66
2021/01/13 04:43:09;;;;;;;14.93;9.63;;;;;;;-2.68;71.11;98705.66;124352;1146;22673;-66
2021/01/13 04:45:40;;;;;;;15.97;9.20;;;;;;;-2.67;71.32;98710.80;124392;1146;22773;-66
2021/01/13 04:48:09;;;;;;;27.23;11.60;;;;;;;-2.67;71.36;98704.64;124358;1147;22715;-67
2021/01/13 04:50:46;;;;;;;16.00;9.37;;;;;;;-2.65;71.21;98691.95;124325;1147;22790;-67
2021/01/13 04:53:16;;;;;;;16.15;9.05;;;;;;;-2.64;71.20;98680.27;124465;1146;22770;-67
2021/01/13 04:55:47;;;;;;;16.07;8.93;;;;;;;-2.65;71.03;98682.11;124316;1147;22706;-66
2021/01/13 04:58:20;;;;;;;16.50;8.83;;;;;;;-2.66;70.38;98677.80;124329;1146;23358;-66
2021/01/13 05:01:16;;;;;;;16.10;8.70;;;;;;;-2.68;71.16;98679.00;124355;1146;22755;-66
2021/01/13 05:03:50;;;;;;;14.80;9.00;;;;;;;-2.69;70.94;98685.34;124391;1146;22690;-66
2021/01/13 05:06:17;;;;;;;17.30;9.73;;;;;;;-2.71;71.49;98676.71;124320;1147;22883;-66
2021/01/13 05:08:59;;;;;;;18.53;9.67;;;;;;;-2.73;71.34;98679.57;124254;1147;23149;-67
2021/01/13 05:11:27;;;;;;;15.10;8.83;;;;;;;-2.80;71.45;98661.89;124178;1148;23371;-66
2021/01/13 05:13:54;;;;;;;15.87;10.00;;;;;;;-2.69;71.65;98677.34;124293;1146;22846;-66
2021/01/13 05:16:21;;;;;;;16.80;10.00;;;;;;;-2.69;71.44;98677.34;124165;1147;22681;-66
2021/01/13 05:18:49;;;;;;;18.27;10.47;;;;;;;-2.71;71.05;98677.54;124181;1148;22691;-66
2021/01/13 05:21:26;;;;;;;19.40;12.00;;;;;;;-2.71;71.51;98674.05;124079;1148;22809;-66
2021/01/13 05:23:55;;;;;;;;;;;;;;;-2.73;71.67;98666.23;124208;1148;22760;-67
2021/01/13 05:26:24;;;;;;;17.95;10.60;;;;;;;-2.73;71.28;98657.42;124262;1145;21438;-67
2021/01/13 05:29:01;;;;;;;18.23;10.17;;;;;;;-2.74;71.72;98661.13;124295;1148;22769;-66
2021/01/13 05:31:32;;;;;;;17.47;9.70;;;;;;;-2.78;71.34;98658.02;124162;1147;23618;-66
2021/01/13 05:34:00;;;;;;;17.07;10.17;;;;;;;-2.81;72.01;98654.91;124229;1148;22704;-66
2021/01/13 05:36:31;;;;;;;18.37;9.83;;;;;;;-2.80;72.02;98652.05;124102;1148;22722;-67
2021/01/13 05:39:12;;;;;;;15.47;9.50;;;;;;;-2.78;71.81;98654.53;124264;1146;22709;-66
2021/01/13 05:41:40;;;;;;;17.07;10.37;;;;;;;-2.76;71.72;98645.33;124249;1147;22703;-66
2021/01/13 05:44:08;;;;;;;21.17;11.27;;;;;;;-2.73;71.63;98652.91;124204;1148;22756;-66
2021/01/13 05:46:44;;;;;;;20.10;10.90;;;;;;;-2.72;72.23;98649.23;124130;1148;22744;-66
2021/01/13 05:49:11;;;;;;;19.93;11.87;;;;;;;-2.69;72.02;98646.18;124224;1149;22781;-66
2021/01/13 05:51:41;;;;;;;18.37;10.10;;;;;;;-2.71;71.76;98647.39;124415;1145;22795;-66
2021/01/13 05:54:15;;;;;;;21.30;11.70;;;;;;;-2.73;71.92;98650.24;124128;1148;22659;-67
2021/01/13 05:56:44;;;;;;;28.43;15.47;;;;;;;-2.73;71.88;98646.75;124090;1149;24521;-67
2021/01/13 05:59:15;;;;;;;23.37;12.60;;;;;;;-2.74;72.28;98648.59;124175;1148;22706;-67
2021/01/13 06:01:57;;;;;;;22.40;10.97;;;;;;;-2.72;71.51;98645.73;124295;1148;22709;-67
2021/01/13 06:04:25;;;;;;;19.00;10.73;;;;;;;-2.73;72.18;98646.75;124048;1148;23573;-67
2021/01/13 06:07:06;;;;;;;19.50;11.83;;;;;;;-2.73;72.05;98649.42;124302;1145;22719;-67
2021/01/13 06:09:41;;;;;;;25.53;13.07;;;;;;;-2.68;72.35;98650.50;124232;1148;22730;-67
2021/01/13 06:12:15;;;;;;;25.10;13.90;;;;;;;-2.66;71.94;98642.30;124770;1144;22710;-67
2021/01/13 06:14:52;;;;;;;21.27;13.10;;;;;;;-2.66;72.37;98644.97;124504;1142;22696;-67
2021/01/13 06:17:24;;;;;;;24.00;14.07;;;;;;;-2.67;72.16;98648.66;124670;1142;22670;-67
2021/01/13 06:19:53;;;;;;;30.80;14.23;;;;;;;-2.67;72.17;98644.15;124495;1144;22703;-67
2021/01/13 06:22:33;;;;;;;28.10;14.77;;;;;;;-2.65;72.19;98650.11;124628;1144;22696;-67
2021/01/13 06:25:03;;;;;;;24.17;12.70;;;;;;;-2.64;71.79;98661.60;124582;1144;22700;-67
2021/01/13 06:27:43;;;;;;;42.17;17.33;;;;;;;-2.65;71.59;98652.78;124686;1144;23554;-67
2021/01/13 06:30:17;;;;;;;29.83;15.13;;;;;;;-2.65;71.75;98658.11;124522;1143;22672;-67
2021/01/13 06:32:52;;;;;;;34.07;16.70;;;;;;;-2.64;71.87;98650.94;124712;1144;22733;-67
2021/01/13 06:35:41;;;;;;;75.97;29.83;;;;;;;-2.62;71.81;98641.73;124561;1144;22760;-67
2021/01/13 06:38:33;;;;;;;53.43;21.50;;;;;;;-2.55;71.97;98644.42;124710;1144;23453;-67
2021/01/13 06:41:02;;;;;;;30.73;14.93;;;;;;;-2.54;72.19;98630.89;124516;1144;22692;-67
2021/01/13 06:43:29;;;;;;;34.53;16.60;;;;;;;-2.53;71.59;98627.21;124742;1143;22657;-67
2021/01/13 06:45:56;;;;;;;36.90;18.13;;;;;;;-2.51;71.62;98619.02;124555;1144;22694;-67
2021/01/13 06:48:27;;;;;;;32.03;16.67;;;;;;;-2.50;71.58;98631.34;124781;1144;22692;-67
2021/01/13 06:50:59;;;;;;;28.57;16.20;;;;;;;-2.62;71.27;98606.24;124536;1142;23299;-67
2021/01/13 06:53:33;;;;;;;24.33;14.60;;;;;;;-2.53;71.16;98611.22;124626;1142;23524;-67
2021/01/13 06:56:01;;;;;;;24.60;13.33;;;;;;;-2.55;71.94;98617.76;124638;1142;22671;-66
2021/01/13 06:58:28;;;;;;;29.60;14.93;;;;;;;-2.58;71.41;98620.81;124844;1144;22765;-66
2021/01/13 07:01:02;;;;;;;27.60;15.27;;;;;;;-2.59;71.78;98616.49;124534;1142;22773;-66
2021/01/13 07:03:31;;;;;;;31.50;14.93;;;;;;;-2.60;72.07;98618.37;124656;1143;22691;-68
2021/01/13 07:06:01;;;;;;;37.83;18.83;;;;;;;-2.59;71.52;98606.66;124744;1143;22696;-66
2021/01/13 07:08:29;;;;;;;33.95;16.35;;;;;;;-2.57;71.82;98614.46;124794;1143;22683;-67
2021/01/13 07:11:07;;;;;;;26.90;14.30;;;;;;;-2.53;71.89;98611.22;124419;1143;22794;-67
2021/01/13 07:13:38;;;;;;;29.90;14.90;;;;;;;-2.48;71.52;98604.47;124554;1144;23371;-67
2021/01/13 07:16:06;;;;;;;37.63;18.60;;;;;;;-2.44;72.14;98609.20;124631;1143;22698;-66
2021/01/13 07:18:35;;;;;;;34.70;16.80;;;;;;;-2.42;71.51;98603.67;124462;1142;22693;-66
2021/01/13 07:21:09;;;;;;;30.05;15.75;;;;;;;-2.42;71.86;98601.00;124768;1144;22771;-66
2021/01/13 07:23:45;;;;;;;29.60;15.90;;;;;;;-2.43;71.33;98608.17;124431;1143;22771;-67
2021/01/13 07:26:13;;;;;;;28.40;14.90;;;;;;;-2.44;71.39;98605.70;124665;1144;22653;-66
2021/01/13 07:28:41;;;;;;;43.73;20.23;;;;;;;-2.53;71.78;98592.55;124580;1144;23310;-67
2021/01/13 07:31:08;;;;;;;31.63;17.40;;;;;;;-2.41;71.64;98607.98;124715;1143;22742;-67
2021/01/13 07:33:41;;;;;;;32.27;18.37;;;;;;;-2.38;71.69;98610.27;124474;1144;22665;-66
2021/01/13 07:36:12;;;;;;;31.90;16.25;;;;;;;-2.36;71.43;98601.05;122637;1144;22892;-64
2021/01/13 07:38:43;;;;;;;32.40;18.30;;;;;;;-2.32;71.42;98593.48;119767;1144;22904;-65
2021/01/13 07:41:10;;;;;;;36.07;18.30;;;;;;;-2.29;71.24;98587.72;124652;1144;22699;-68
2021/01/13 07:43:59;;;;;;;34.83;16.50;;;;;;;-2.29;71.52;98583.21;124419;1144;22797;-66
2021/01/13 07:46:30;;;;;;;34.37;17.90;;;;;;;-2.27;71.55;98578.50;124604;1144;22694;-66
2021/01/13 07:49:04;;;;;;;34.67;19.23;;;;;;;-2.25;71.44;98567.64;124669;1144;22797;-66
2021/01/13 07:51:35;;;;;;;33.97;18.87;;;;;;;-2.25;71.50;98564.97;124612;1142;22738;-66
2021/01/13 07:54:06;;;;;;;34.67;17.43;;;;;;;-2.25;71.37;98565.80;124297;1144;22776;-65
2021/01/13 07:56:35;;;;;;;32.30;16.93;;;;;;;-2.25;71.54;98549.78;124640;1143;23384;-67
2021/01/13 07:59:27;;;;;;;29.57;16.20;;;;;;;-2.27;71.87;98559.83;124530;1143;22677;-67
2021/01/13 08:02:16;;;;;;;31.03;16.00;;;;;;;-2.29;71.61;98550.38;124727;1142;22815;-67
2021/01/13 08:04:50;;;;;;;32.37;17.10;;;;;;;-2.30;71.67;98538.06;124459;1143;22800;-67
2021/01/13 08:07:17;;;;;;;34.60;16.90;;;;;;;-2.29;71.43;98553.05;124559;1144;22688;-67
2021/01/13 08:09:49;;;;;;;29.47;15.40;;;;;;;-2.30;71.76;98536.22;124381;1144;22715;-67
2021/01/13 08:12:57;;;;;;;44.73;22.10;;;;;;;-2.28;71.66;98538.69;124636;1142;22782;-67
2021/01/13 08:15:43;;;;;;;27.87;14.60;;;;;;;-2.23;71.78;98530.91;124365;1144;22711;-68
2021/01/13 08:18:49;;;;;;;36.80;18.50;;;;;;;-2.21;71.65;98527.03;124406;1144;24205;-67
2021/01/13 08:21:34;;;;;;;43.10;19.47;;;;;;;-2.17;71.80;98522.13;124560;1143;22739;-65
2021/01/13 08:26:33;;;;;;;31.60;16.80;;;;;;;-2.10;71.64;98530.95;124478;1142;23386;-65
2021/01/13 08:29:02;;;;;;;30.77;15.93;;;;;;;-2.11;71.52;98513.29;124517;1142;22686;-66
2021/01/13 08:31:31;;;;;;;28.17;15.70;;;;;;;-2.12;71.39;98510.83;124426;1142;23411;-66
2021/01/13 08:34:03;;;;;;;36.53;18.00;;;;;;;-2.13;71.08;98507.33;124599;1144;22677;-66
2021/01/13 08:36:31;;;;;;;44.50;19.77;;;;;;;-2.16;70.86;98510.39;124458;1144;22694;-66
2021/01/13 08:39:14;;;;;;;31.47;18.50;;;;;;;-2.14;71.38;98511.02;124522;1143;22764;-66
2021/01/13 08:41:43;;;;;;;36.83;17.13;;;;;;;-2.14;71.46;98509.17;124465;1143;22701;-65
2021/01/13 08:44:16;;;;;;;41.10;17.20;;;;;;;-2.11;71.21;98517.80;124730;1144;22640;-66
2021/01/13 08:46:49;;;;;;;32.20;16.03;;;;;;;-2.11;71.45;98507.13;124592;1144;23737;-66
2021/01/13 08:49:25;;;;;;;30.70;15.73;;;;;;;-2.10;71.28;98501.59;124717;1144;22679;-65
2021/01/13 08:52:18;;;;;;;33.23;16.60;;;;;;;-2.06;71.28;98500.17;124480;1144;22769;-64
2021/01/13 08:55:14;;;;;;;33.60;16.17;;;;;;;-2.01;71.33;98494.21;124701;1144;22768;-65
2021/01/13 08:57:55;;;;;;;33.50;16.03;;;;;;;-1.97;71.27;98487.45;124756;1144;22691;-67
2021/01/13 09:00:24;;;;;;;39.17;18.43;;;;;;;-1.93;71.27;98484.19;124539;1144;23475;-67
2021/01/13 09:02:57;;;;;;;41.00;19.97;;;;;;;-1.90;70.83;98478.44;124499;1144;22775;-68
2021/01/13 09:05:29;;;;;;;34.97;16.20;;;;;;;-1.88;70.66;98473.73;124695;1142;22674;-68
2021/01/13 09:07:58;;;;;;;38.93;17.63;;;;;;;-1.86;70.87;98471.65;124652;1144;22754;-69
2021/01/13 09:10:54;;;;;;;37.43;18.60;;;;;;;-1.82;70.79;98464.06;124638;1144;22770;-68
2021/01/13 09:13:31;;;;;;;39.90;18.87;;;;;;;-1.80;70.75;98454.00;124621;1142;22806;-68
2021/01/13 09:16:24;;;;;;;42.13;22.02;;;;;;;-1.81;70.80;98444.34;124798;1144;22667;-68
2021/01/13 09:18:55;;;;;;;38.83;19.70;;;;;;;-1.79;70.59;98443.12;124709;1143;22783;-68
2021/01/13 09:21:36;;;;;;;35.00;18.43;;;;;;;-1.75;70.47;98442.72;124831;1144;22643;-68
2021/01/13 09:24:04;;;;;;;31.77;16.60;;;;;;;-1.72;70.38;98450.29;124558;1143;22731;-67
2021/01/13 09:26:34;;;;;;;31.40;16.80;;;;;;;-1.69;70.11;98445.37;124776;1143;23741;-66
2021/01/13 09:29:06;;;;;;;32.10;15.70;;;;;;;-1.66;70.03;98452.16;124576;1142;26516;-66
2021/01/13 09:31:33;;;;;;;39.53;18.40;;;;;;;-1.62;70.34;98458.73;124777;1142;22855;-66
2021/01/13 09:34:02;;;;;;;44.60;20.30;;;;;;;-1.61;69.46;98457.70;124664;1144;22743;-66
2021/01/13 09:36:31;;;;;;;37.57;19.67;;;;;;;-1.60;69.61;98460.17;124589;1144;23346;-67
2021/01/13 09:39:12;;;;;;;39.80;17.87;;;;;;;-1.59;69.43;98463.67;124675;1143;22774;-67
2021/01/13 09:41:41;;;;;;;28.77;17.03;;;;;;;-1.58;69.53;98452.75;124710;1143;24042;-67
2021/01/13 09:44:10;;;;;;;31.83;17.10;;;;;;;-1.58;69.55;98454.59;124594;1143;23124;-67
2021/01/13 09:46:37;;;;;;;31.10;18.13;;;;;;;-1.58;69.32;98455.42;124643;1143;22681;-66
2021/01/13 09:49:10;;;;;;;34.27;18.03;;;;;;;-1.61;69.04;98453.19;124676;1143;22689;-67
2021/01/13 09:51:38;;;;;;;33.23;17.43;;;;;;;-1.63;69.27;98443.73;124846;1142;22778;-67
2021/01/13 09:54:06;;;;;;;42.87;19.97;;;;;;;-1.68;69.38;98444.34;124545;1144;22706;-66
2021/01/13 09:56:35;;;;;;;39.93;20.37;;;;;;;-1.69;69.50;98431.20;124647;1143;22761;-67
2021/01/13 09:59:04;;;;;;;39.80;20.50;;;;;;;-1.69;69.59;98432.02;124612;1142;23419;-66
2021/01/13 10:01:38;;;;;;;36.77;19.87;;;;;;;-1.70;69.89;98424.20;124768;1144;22645;-68
2021/01/13 10:04:10;;;;;;;34.80;18.50;;;;;;;-1.69;69.86;98421.34;124753;1143;22684;-66
2021/01/13 10:06:39;;;;;;;30.80;16.63;;;;;;;-1.79;69.91;98400.41;124801;1143;23263;-66
2021/01/13 10:09:18;;;;;;;30.83;15.77;;;;;;;-1.68;69.67;98404.29;124606;1142;22754;-66
2021/01/13 10:11:53;;;;;;;30.60;16.43;;;;;;;-1.66;69.84;98401.42;124839;1142;22753;-66
2021/01/13 10:14:20;;;;;;;29.43;16.77;;;;;;;-1.66;69.88;98394.23;124768;1143;22677;-66
2021/01/13 10:16:48;;;;;;;41.57;16.17;;;;;;;-1.64;69.64;98392.17;124482;1144;22692;-66
2021/01/13 10:19:17;;;;;;;30.23;16.83;;;;;;;-1.63;69.78;98395.67;124849;1142;22694;-66
2021/01/13 10:21:48;;;;;;;29.20;16.50;;;;;;;-1.62;69.69;98389.30;124643;1142;22800;-67
2021/01/13 10:24:17;;;;;;;31.37;16.53;;;;;;;-1.61;69.02;98390.95;124714;1143;22806;-67
2021/01/13 10:26:47;;;;;;;33.57;18.10;;;;;;;-1.61;69.05;98390.95;124627;1144;22768;-67
2021/01/13 10:29:20;;;;;;;25.67;14.13;;;;;;;-1.60;69.16;98387.25;124648;1143;22752;-67
2021/01/13 10:31:51;;;;;;;38.03;20.00;;;;;;;-1.60;69.24;98387.25;124587;1142;22708;-66
2021/01/13 10:34:18;;;;;;;27.13;15.53;;;;;;;-1.60;69.51;98385.40;124838;1143;22688;-66
2021/01/13 10:36:49;;;;;;;29.97;15.50;;;;;;;-1.59;69.34;98373.69;124712;1144;22785;-67
2021/01/13 10:39:18;;;;;;;25.77;12.77;;;;;;;-1.57;69.03;98368.94;124772;1143;22684;-67
2021/01/13 10:41:47;;;;;;;24.83;12.77;;;;;;;-1.58;68.91;98364.62;124615;1142;22694;-66
2021/01/13 10:44:28;;;;;;;21.33;11.83;;;;;;;-1.59;68.47;98363.01;124665;1144;22668;-67
2021/01/13 10:47:00;;;;;;;22.03;11.27;;;;;;;-1.63;68.39;98358.28;124680;1142;23468;-66
2021/01/13 10:49:38;;;;;;;18.23;10.63;;;;;;;-1.63;68.14;98352.94;124709;1144;25195;-66
2021/01/13 10:52:11;;;;;;;20.10;10.40;;;;;;;-1.66;68.19;98351.50;124528;1144;22728;-67
2021/01/13 10:54:45;;;;;;;19.47;10.90;;;;;;;-1.68;68.11;98339.38;124744;1142;22696;-66
2021/01/13 10:57:14;;;;;;;25.67;13.67;;;;;;;-1.69;68.20;98341.23;124644;1144;22679;-66
2021/01/13 10:59:42;;;;;;;35.50;18.77;;;;;;;-1.66;68.32;98331.98;124854;1143;22756;-67
2021/01/13 11:02:10;;;;;;;24.83;14.70;;;;;;;-1.65;68.04;98330.96;124595;1144;22666;-67
2021/01/13 11:04:39;;;;;;;25.97;14.63;;;;;;;-1.66;68.26;98329.32;124726;1142;22697;-67
2021/01/13 11:07:14;;;;;;;16.57;10.10;;;;;;;-1.66;68.07;98326.65;124647;1144;22665;-67
2021/01/13 11:09:43;;;;;;;18.87;11.00;;;;;;;-1.63;68.41;98324.39;124732;1144;22698;-67
2021/01/13 11:12:11;;;;;;;19.77;11.53;;;;;;;-1.60;68.04;98312.47;124525;1144;22707;-67
2021/01/13 11:14:40;;;;;;;18.57;10.97;;;;;;;-1.56;67.88;98313.67;124658;1144;22713;-67
2021/01/13 11:17:12;;;;;;;15.63;8.90;;;;;;;-1.56;67.12;98308.33;124679;1142;22676;-67
2021/01/13 11:19:42;;;;;;;15.83;9.53;;;;;;;-1.55;67.50;98315.31;124853;1144;22679;-67
2021/01/13 11:22:11;;;;;;;22.50;10.30;;;;;;;-1.57;67.48;98301.34;124685;1144;22677;-67
2021/01/13 11:24:44;;;;;;;24.60;12.33;;;;;;;-1.56;67.52;98297.65;124790;1143;22689;-67
2021/01/13 11:27:18;;;;;;;31.07;16.60;;;;;;;-1.58;67.74;98294.36;124820;1144;22763;-67
2021/01/13 11:29:52;;;;;;;32.80;17.17;;;;;;;-1.61;67.50;98295.63;124625;1143;22704;-67
2021/01/13 11:32:29;;;;;;;28.10;14.27;;;;;;;-1.64;67.63;98285.36;124708;1143;22736;-67
2021/01/13 11:34:56;;;;;;;33.95;17.70;;;;;;;-1.66;67.69;98270.58;124808;1142;22719;-65
2021/01/13 11:37:37;;;;;;;28.57;15.73;;;;;;;-1.67;68.21;98272.42;124766;1144;22664;-66